createdAt,value
2019-03-02T00:00:12.811Z,82.60
2019-03-02T00:00:56.725Z,82.70
2019-03-02T00:01:33.500Z,82.50
2019-03-02T00:02:10.015Z,82.60
2019-03-02T00:02:45.571Z,82.60
2019-03-02T00:03:21.290Z,82.70
2019-03-02T00:03:56.923Z,82.60
2019-03-02T00:04:32.459Z,82.60
2019-03-02T00:05:08.026Z,82.50
2019-03-02T00:05:43.651Z,82.50
2019-03-02T00:06:19.332Z,82.40
2019-03-02T00:06:55.222Z,82.50
2019-03-02T00:07:30.780Z,82.40
2019-03-02T00:08:06.333Z,82.20
2019-03-02T00:08:41.899Z,81.90
2019-03-02T00:09:17.459Z,82.60
2019-03-02T00:09:53.007Z,81.70
2019-03-02T00:10:29.605Z,81.50
2019-03-02T00:11:05.450Z,81.60
2019-03-02T00:11:41.006Z,81.60
2019-03-02T00:12:16.569Z,81.70
2019-03-02T00:12:52.539Z,81.80
2019-03-02T00:13:28.114Z,82.00
2019-03-02T00:14:03.760Z,82.10
2019-03-02T00:14:39.679Z,82.10
2019-03-02T00:15:15.403Z,82.20
2019-03-02T00:15:50.943Z,82.20
2019-03-02T00:16:26.546Z,82.30
2019-03-02T00:17:02.445Z,82.20
2019-03-02T00:17:37.997Z,82.80
2019-03-02T00:18:13.679Z,82.40
2019-03-02T00:18:49.307Z,82.50
2019-03-02T00:19:24.881Z,82.50
2019-03-02T00:20:00.494Z,82.60
2019-03-02T00:20:36.371Z,82.70
2019-03-02T00:21:12.003Z,82.10
2019-03-02T00:21:47.910Z,82.60
2019-03-02T00:22:23.507Z,82.70
2019-03-02T00:22:59.085Z,82.70
2019-03-02T00:23:34.635Z,82.70
2019-03-02T00:24:10.263Z,82.70
2019-03-02T00:24:46.808Z,82.80
2019-03-02T00:25:22.639Z,82.90
2019-03-02T00:25:58.194Z,83.00
2019-03-02T00:26:33.742Z,83.00
2019-03-02T00:27:09.690Z,83.10
2019-03-02T00:27:45.249Z,83.20
2019-03-02T00:28:21.126Z,83.10
2019-03-02T00:28:57.043Z,83.30
2019-03-02T00:29:32.704Z,83.40
2019-03-02T00:30:08.906Z,83.40
2019-03-02T00:30:44.824Z,83.40
2019-03-02T00:31:20.448Z,83.50
2019-03-02T00:31:55.996Z,83.60
2019-03-02T00:32:31.579Z,83.70
2019-03-02T00:33:07.803Z,83.70
2019-03-02T00:33:43.687Z,83.80
2019-03-02T00:34:19.335Z,83.80
2019-03-02T00:34:54.891Z,84.10
2019-03-02T00:35:30.439Z,84.10
2019-03-02T00:36:05.990Z,84.10
2019-03-02T00:36:41.619Z,84.20
2019-03-02T00:37:17.645Z,84.40
2019-03-02T00:37:53.555Z,84.50
2019-03-02T00:38:29.106Z,84.80
2019-03-02T00:39:05.461Z,84.80
2019-03-02T00:39:41.293Z,84.90
2019-03-02T00:40:17.429Z,85.20
2019-03-02T00:40:53.683Z,85.20
2019-03-02T00:41:29.331Z,85.30
2019-03-02T00:42:05.507Z,85.50
2019-03-02T00:42:41.402Z,85.60
2019-03-02T00:43:16.959Z,85.60
2019-03-02T00:43:52.498Z,85.90
2019-03-02T00:44:28.319Z,85.90
2019-03-02T00:45:04.173Z,85.90
2019-03-02T00:45:39.747Z,85.90
2019-03-02T00:46:15.311Z,85.90
2019-03-02T00:46:51.974Z,85.90
2019-03-02T00:47:27.539Z,85.90
2019-03-02T00:48:03.086Z,85.90
2019-03-02T00:48:38.698Z,85.90
2019-03-02T00:49:14.273Z,85.90
2019-03-02T00:49:50.251Z,86.00
2019-03-02T00:50:26.114Z,86.10
2019-03-02T00:51:01.674Z,86.30
2019-03-02T00:51:37.302Z,86.40
2019-03-02T00:52:12.860Z,86.50
2019-03-02T00:52:49.166Z,86.50
2019-03-02T00:53:24.764Z,86.50
2019-03-02T00:54:00.930Z,86.50
2019-03-02T00:54:36.559Z,86.50
2019-03-02T00:55:12.099Z,86.50
2019-03-02T00:55:47.678Z,86.60
2019-03-02T00:56:23.235Z,86.60
2019-03-02T00:56:59.258Z,86.60
2019-03-02T00:57:35.390Z,86.60
2019-03-02T00:58:11.026Z,86.70
2019-03-02T00:58:47.254Z,86.80
2019-03-02T00:59:23.087Z,86.90
2019-03-02T00:59:58.650Z,86.90
2019-03-02T01:00:34.550Z,87.00
2019-03-02T01:01:10.410Z,87.10
2019-03-02T01:01:45.974Z,87.10
2019-03-02T01:02:21.584Z,87.20
2019-03-02T01:02:57.338Z,87.20
2019-03-02T01:03:32.888Z,87.20
2019-03-02T01:04:08.451Z,87.20
2019-03-02T01:04:44.328Z,87.20
2019-03-02T01:05:19.950Z,87.20
2019-03-02T01:05:55.708Z,87.20
2019-03-02T01:06:31.282Z,87.20
2019-03-02T01:07:06.866Z,87.20
2019-03-02T01:07:42.545Z,87.20
2019-03-02T01:08:18.163Z,87.20
2019-03-02T01:08:53.802Z,87.20
2019-03-02T01:09:29.699Z,87.30
2019-03-02T01:10:06.642Z,87.30
2019-03-02T01:10:42.499Z,87.40
2019-03-02T01:11:18.042Z,87.30
2019-03-02T01:11:53.607Z,87.40
2019-03-02T01:12:29.164Z,87.40
2019-03-02T01:13:05.138Z,87.30
2019-03-02T01:13:41.403Z,87.40
2019-03-02T01:14:16.967Z,87.50
2019-03-02T01:14:52.599Z,87.50
2019-03-02T01:15:28.149Z,87.50
2019-03-02T01:16:03.698Z,87.40
2019-03-02T01:16:39.330Z,87.50
2019-03-02T01:17:14.883Z,87.50
2019-03-02T01:17:50.456Z,87.60
2019-03-02T01:18:26.107Z,87.60
2019-03-02T01:19:02.023Z,87.60
2019-03-02T01:19:37.570Z,87.70
2019-03-02T01:20:14.342Z,87.70
2019-03-02T01:20:49.898Z,87.60
2019-03-02T01:21:25.467Z,87.60
2019-03-02T01:22:01.015Z,87.60
2019-03-02T01:22:36.577Z,87.60
2019-03-02T01:23:12.138Z,87.60
2019-03-02T01:23:47.717Z,87.50
2019-03-02T01:24:23.585Z,87.50
2019-03-02T01:24:59.195Z,87.60
2019-03-02T01:25:34.743Z,87.60
2019-03-02T01:26:10.294Z,87.50
2019-03-02T01:26:45.841Z,87.40
2019-03-02T01:27:21.467Z,87.30
2019-03-02T01:27:58.299Z,87.30
2019-03-02T01:28:33.849Z,87.30
2019-03-02T01:29:09.401Z,87.30
2019-03-02T01:29:45.308Z,87.20
2019-03-02T01:30:21.157Z,87.10
2019-03-02T01:30:56.714Z,87.10
2019-03-02T01:31:32.274Z,87.10
2019-03-02T01:32:07.831Z,87.00
2019-03-02T01:32:43.398Z,87.00
2019-03-02T01:33:20.364Z,87.00
2019-03-02T01:33:56.177Z,86.90
2019-03-02T01:34:31.806Z,86.90
2019-03-02T01:35:07.362Z,86.80
2019-03-02T01:35:43.414Z,86.90
2019-03-02T01:36:18.959Z,86.80
2019-03-02T01:36:54.638Z,86.80
2019-03-02T01:37:30.606Z,86.80
2019-03-02T01:38:06.153Z,86.80
2019-03-02T01:38:41.725Z,86.80
2019-03-02T01:39:17.270Z,86.80
2019-03-02T01:39:52.906Z,86.70
2019-03-02T01:40:28.558Z,86.70
2019-03-02T01:41:04.456Z,86.70
2019-03-02T01:41:39.991Z,86.70
2019-03-02T01:42:15.543Z,86.70
2019-03-02T01:42:51.103Z,86.60
2019-03-02T01:43:26.665Z,86.70
2019-03-02T01:44:02.227Z,86.60
2019-03-02T01:44:37.878Z,86.70
2019-03-02T01:45:14.978Z,86.70
2019-03-02T01:45:50.711Z,86.50
2019-03-02T01:46:26.299Z,86.60
2019-03-02T01:47:01.918Z,86.60
2019-03-02T01:47:38.544Z,87.20
2019-03-02T01:48:14.176Z,86.60
2019-03-02T01:48:50.092Z,86.30
2019-03-02T01:49:25.634Z,85.80
2019-03-02T01:50:01.228Z,86.00
2019-03-02T01:50:38.079Z,86.00
2019-03-02T01:51:13.645Z,86.00
2019-03-02T01:51:49.210Z,86.10
2019-03-02T01:52:24.770Z,86.00
2019-03-02T01:53:00.379Z,86.00
2019-03-02T01:53:36.000Z,85.90
2019-03-02T01:54:11.556Z,85.80
2019-03-02T01:54:47.188Z,85.80
2019-03-02T01:55:23.091Z,85.80
2019-03-02T01:55:58.658Z,85.90
2019-03-02T01:56:34.221Z,85.80
2019-03-02T01:57:09.770Z,85.80
2019-03-02T01:57:48.753Z,86.10
2019-03-02T01:58:24.631Z,85.80
2019-03-02T01:59:00.638Z,85.80
2019-03-02T01:59:38.751Z,85.80
2019-03-02T02:00:18.318Z,85.80
2019-03-02T02:00:53.886Z,85.80
2019-03-02T02:01:29.427Z,85.80
2019-03-02T02:02:05.010Z,85.80
2019-03-02T02:02:40.952Z,85.80
2019-03-02T02:03:16.502Z,85.90
2019-03-02T02:03:52.055Z,85.80
2019-03-02T02:04:29.207Z,85.80
2019-03-02T02:05:05.086Z,86.10
2019-03-02T02:05:40.716Z,86.10
2019-03-02T02:06:16.678Z,86.40
2019-03-02T02:06:52.329Z,86.40
2019-03-02T02:07:27.878Z,86.40
2019-03-02T02:08:03.435Z,86.70
2019-03-02T02:08:38.992Z,87.40
2019-03-02T02:09:14.908Z,86.90
2019-03-02T02:09:50.598Z,87.00
2019-03-02T02:10:26.154Z,87.20
2019-03-02T02:11:01.708Z,87.20
2019-03-02T02:11:37.398Z,87.30
2019-03-02T02:12:14.105Z,87.60
2019-03-02T02:12:49.930Z,87.70
2019-03-02T02:13:25.534Z,87.80
2019-03-02T02:14:01.408Z,87.80
2019-03-02T02:14:37.255Z,88.00
2019-03-02T02:15:15.141Z,88.00
2019-03-02T02:15:50.758Z,88.10
2019-03-02T02:16:26.328Z,88.20
2019-03-02T02:17:01.865Z,88.30
2019-03-02T02:17:37.674Z,88.40
2019-03-02T02:18:13.258Z,88.40
2019-03-02T02:18:48.816Z,88.50
2019-03-02T02:19:24.402Z,88.50
2019-03-02T02:19:59.975Z,88.50
2019-03-02T02:20:35.571Z,88.50
2019-03-02T02:21:11.130Z,88.60
2019-03-02T02:21:47.022Z,88.50
2019-03-02T02:22:22.574Z,88.70
2019-03-02T02:22:58.122Z,88.70
2019-03-02T02:23:34.403Z,88.70
2019-03-02T02:24:10.033Z,88.70
2019-03-02T02:24:45.608Z,88.70
2019-03-02T02:25:21.165Z,88.60
2019-03-02T02:25:56.694Z,88.70
2019-03-02T02:26:32.510Z,88.80
2019-03-02T02:27:08.327Z,88.90
2019-03-02T02:27:44.194Z,88.80
2019-03-02T02:28:19.750Z,89.70
2019-03-02T02:28:55.383Z,88.90
2019-03-02T02:29:30.922Z,88.90
2019-03-02T02:30:18.659Z,88.90
2019-03-02T02:30:53.414Z,88.90
2019-03-02T02:31:29.107Z,89.00
2019-03-02T02:32:04.650Z,89.00
2019-03-02T02:32:41.139Z,89.00
2019-03-02T02:33:16.687Z,89.00
2019-03-02T02:33:52.277Z,89.10
2019-03-02T02:34:28.151Z,89.10
2019-03-02T02:35:03.867Z,89.20
2019-03-02T02:35:40.223Z,89.20
2019-03-02T02:36:18.803Z,89.20
2019-03-02T02:36:58.215Z,89.30
2019-03-02T02:37:37.079Z,89.30
2019-03-02T02:38:11.268Z,89.30
2019-03-02T02:38:53.859Z,89.90
2019-03-02T02:39:24.383Z,89.30
2019-03-02T02:40:01.885Z,89.30
2019-03-02T02:40:39.595Z,89.40
2019-03-02T02:41:21.997Z,89.30
2019-03-02T02:41:52.769Z,89.30
2019-03-02T02:42:28.317Z,89.30
2019-03-02T02:43:04.184Z,89.70
2019-03-02T02:43:39.822Z,89.40
2019-03-02T02:44:15.375Z,89.40
2019-03-02T02:44:50.936Z,89.50
2019-03-02T02:45:26.534Z,89.40
2019-03-02T02:46:02.446Z,89.50
2019-03-02T02:46:38.011Z,89.60
2019-03-02T02:47:14.536Z,89.60
2019-03-02T02:47:52.097Z,89.70
2019-03-02T02:48:31.244Z,89.70
2019-03-02T02:49:05.601Z,89.90
2019-03-02T02:49:44.394Z,89.80
2019-03-02T02:50:28.271Z,90.30
2019-03-02T02:50:56.540Z,90.00
2019-03-02T02:51:32.171Z,90.40
2019-03-02T02:52:07.742Z,90.00
2019-03-02T02:52:43.291Z,90.10
2019-03-02T02:53:18.843Z,90.10
2019-03-02T02:53:54.728Z,90.10
2019-03-02T02:54:30.283Z,90.10
2019-03-02T02:55:06.105Z,90.10
2019-03-02T02:55:42.297Z,90.10
2019-03-02T02:56:19.600Z,90.10
2019-03-02T02:56:58.614Z,90.20
2019-03-02T02:57:33.614Z,90.10
2019-03-02T02:58:12.486Z,90.10
2019-03-02T02:58:55.632Z,90.20
2019-03-02T02:59:25.182Z,90.10
2019-03-02T03:00:00.735Z,90.20
2019-03-02T03:00:36.343Z,90.20
2019-03-02T03:01:11.898Z,90.30
2019-03-02T03:01:47.527Z,90.20
2019-03-02T03:02:23.069Z,90.30
2019-03-02T03:02:59.580Z,90.30
2019-03-02T03:03:35.146Z,90.30
2019-03-02T03:04:10.699Z,90.30
2019-03-02T03:04:46.801Z,90.30
2019-03-02T03:05:22.342Z,90.30
2019-03-02T03:05:57.906Z,90.30
2019-03-02T03:06:34.222Z,90.30
2019-03-02T03:07:12.459Z,90.30
2019-03-02T03:07:53.501Z,90.30
2019-03-02T03:08:44.657Z,90.20
2019-03-02T03:09:39.375Z,90.30
2019-03-02T03:10:34.172Z,90.30
2019-03-02T03:11:09.705Z,90.30
2019-03-02T03:11:45.734Z,90.30
2019-03-02T03:12:22.964Z,90.30
2019-03-02T03:13:02.059Z,90.30
2019-03-02T03:13:40.679Z,90.30
2019-03-02T03:14:14.957Z,90.30
2019-03-02T03:14:54.230Z,90.30
2019-03-02T03:15:37.126Z,90.30
2019-03-02T03:16:16.480Z,90.30
2019-03-02T03:16:54.025Z,90.40
2019-03-02T03:17:28.112Z,90.40
2019-03-02T03:18:07.266Z,90.40
2019-03-02T03:18:41.879Z,90.80
2019-03-02T03:19:17.420Z,90.40
2019-03-02T03:19:53.043Z,90.50
2019-03-02T03:20:28.582Z,90.40
2019-03-02T03:21:04.169Z,90.40
2019-03-02T03:21:40.068Z,90.50
2019-03-02T03:22:15.626Z,90.40
2019-03-02T03:22:51.434Z,90.40
2019-03-02T03:23:26.987Z,90.40
2019-03-02T03:24:03.827Z,90.40
2019-03-02T03:24:40.476Z,90.40
2019-03-02T03:25:18.046Z,90.40
2019-03-02T03:25:57.189Z,90.50
2019-03-02T03:26:35.197Z,90.40
2019-03-02T03:27:13.264Z,90.40
2019-03-02T03:27:51.406Z,90.50
2019-03-02T03:28:26.079Z,90.50
2019-03-02T03:29:05.206Z,90.50
2019-03-02T03:29:44.633Z,90.50
2019-03-02T03:30:17.011Z,90.50
2019-03-02T03:30:53.869Z,90.60
2019-03-02T03:31:31.655Z,90.50
2019-03-02T03:32:09.326Z,90.50
2019-03-02T03:32:54.180Z,90.60
2019-03-02T03:33:21.445Z,90.60
2019-03-02T03:33:57.278Z,90.60
2019-03-02T03:34:32.924Z,90.60
2019-03-02T03:35:16.668Z,90.60
2019-03-02T03:35:45.991Z,90.70
2019-03-02T03:36:21.573Z,90.60
2019-03-02T03:36:57.121Z,90.70
2019-03-02T03:37:34.760Z,90.60
2019-03-02T03:38:10.334Z,90.70
2019-03-02T03:38:45.874Z,90.70
2019-03-02T03:39:21.428Z,90.60
2019-03-02T03:39:57.608Z,90.70
2019-03-02T03:40:33.150Z,90.60
2019-03-02T03:41:08.728Z,90.70
2019-03-02T03:41:45.015Z,90.70
2019-03-02T03:42:23.055Z,90.70
2019-03-02T03:43:02.534Z,90.70
2019-03-02T03:43:41.535Z,90.70
2019-03-02T03:44:17.712Z,90.80
2019-03-02T03:44:50.510Z,90.70
2019-03-02T03:45:28.397Z,90.70
2019-03-02T03:46:03.328Z,90.80
2019-03-02T03:46:38.957Z,90.80
2019-03-02T03:47:14.517Z,90.80
2019-03-02T03:47:50.067Z,90.80
2019-03-02T03:48:25.642Z,90.80
2019-03-02T03:49:01.208Z,90.80
2019-03-02T03:49:36.752Z,90.90
2019-03-02T03:50:14.151Z,90.80
2019-03-02T03:50:52.354Z,90.90
2019-03-02T03:51:30.611Z,90.80
2019-03-02T03:52:09.311Z,90.80
2019-03-02T03:52:44.089Z,90.80
2019-03-02T03:53:21.873Z,90.80
2019-03-02T03:54:01.620Z,90.80
2019-03-02T03:54:35.547Z,90.80
2019-03-02T03:55:11.107Z,90.90
2019-03-02T03:55:46.662Z,90.80
2019-03-02T03:56:22.231Z,90.90
2019-03-02T03:56:57.807Z,90.80
2019-03-02T03:57:33.607Z,90.80
2019-03-02T03:58:09.163Z,90.80
2019-03-02T03:58:44.702Z,90.80
2019-03-02T03:59:20.680Z,90.80
2019-03-02T03:59:58.670Z,90.80
2019-03-02T04:00:38.277Z,90.80
2019-03-02T04:01:17.013Z,90.90
2019-03-02T04:01:52.256Z,90.90
2019-03-02T04:02:26.207Z,90.90
2019-03-02T04:03:02.189Z,90.90
2019-03-02T04:03:38.114Z,90.90
2019-03-02T04:04:13.646Z,90.90
2019-03-02T04:04:49.208Z,90.90
2019-03-02T04:05:24.746Z,90.90
2019-03-02T04:06:00.322Z,90.90
2019-03-02T04:06:35.880Z,90.90
2019-03-02T04:07:11.451Z,90.90
2019-03-02T04:07:49.644Z,90.80
2019-03-02T04:08:28.824Z,90.80
2019-03-02T04:09:03.123Z,90.80
2019-03-02T04:09:42.891Z,90.80
2019-03-02T04:10:24.521Z,90.80
2019-03-02T04:10:54.694Z,90.80
2019-03-02T04:11:30.576Z,90.80
2019-03-02T04:12:06.682Z,90.70
2019-03-02T04:12:42.471Z,90.80
2019-03-02T04:13:18.036Z,90.70
2019-03-02T04:13:53.953Z,90.70
2019-03-02T04:14:29.502Z,90.70
2019-03-02T04:15:05.064Z,90.60
2019-03-02T04:15:43.087Z,90.50
2019-03-02T04:16:20.550Z,90.50
2019-03-02T04:17:00.129Z,90.60
2019-03-02T04:17:39.186Z,90.50
2019-03-02T04:18:54.666Z,90.50
2019-03-02T04:19:34.100Z,90.60
2019-03-02T04:20:12.475Z,90.60
2019-03-02T04:20:49.687Z,90.60
2019-03-02T04:21:31.940Z,90.50
2019-03-02T04:22:09.494Z,90.40
2019-03-02T04:22:46.046Z,90.40
2019-03-02T04:23:22.350Z,90.40
2019-03-02T04:24:01.215Z,90.40
2019-03-02T04:24:39.814Z,90.40
2019-03-02T04:25:18.019Z,90.40
2019-03-02T04:25:52.041Z,90.40
2019-03-02T04:26:31.359Z,90.40
2019-03-02T04:27:05.478Z,90.40
2019-03-02T04:27:41.032Z,90.40
2019-03-02T04:28:16.592Z,90.40
2019-03-02T04:28:52.438Z,90.40
2019-03-02T04:29:27.979Z,90.40
2019-03-02T04:30:03.535Z,90.40
2019-03-02T04:30:39.422Z,90.30
2019-03-02T04:31:14.963Z,90.30
2019-03-02T04:31:51.041Z,90.30
2019-03-02T04:32:27.811Z,90.40
2019-03-02T04:33:05.995Z,90.40
2019-03-02T04:33:43.248Z,90.40
2019-03-02T04:34:21.163Z,90.40
2019-03-02T04:34:57.693Z,90.40
2019-03-02T04:35:33.729Z,90.60
2019-03-02T04:36:11.170Z,90.30
2019-03-02T04:36:47.622Z,90.20
2019-03-02T04:37:24.923Z,90.20
2019-03-02T04:38:02.243Z,90.20
2019-03-02T04:38:38.981Z,90.20
2019-03-02T04:39:15.010Z,90.30
2019-03-02T04:39:51.125Z,90.20
2019-03-02T04:40:29.094Z,90.20
2019-03-02T04:41:04.849Z,90.20
2019-03-02T04:41:40.845Z,90.20
2019-03-02T04:42:16.682Z,90.20
2019-03-02T04:42:52.535Z,90.20
2019-03-02T04:43:28.087Z,90.10
2019-03-02T04:44:03.619Z,90.10
2019-03-02T04:44:39.226Z,90.10
2019-03-02T04:45:15.459Z,90.10
2019-03-02T04:45:51.517Z,90.00
2019-03-02T04:46:27.079Z,90.00
2019-03-02T04:47:02.610Z,90.00
2019-03-02T04:47:38.170Z,90.00
2019-03-02T04:48:13.734Z,90.00
2019-03-02T04:48:49.291Z,90.00
2019-03-02T04:49:25.118Z,90.10
2019-03-02T04:50:00.948Z,90.00
2019-03-02T04:50:37.046Z,90.00
2019-03-02T04:51:12.667Z,90.00
2019-03-02T04:51:48.611Z,90.00
2019-03-02T04:52:24.431Z,90.00
2019-03-02T04:52:59.979Z,90.00
2019-03-02T04:53:36.794Z,90.00
2019-03-02T04:54:12.343Z,90.10
2019-03-02T04:54:47.888Z,90.00
2019-03-02T04:55:23.434Z,90.10
2019-03-02T04:55:59.234Z,90.00
2019-03-02T04:56:34.778Z,90.00
2019-03-02T04:57:11.550Z,90.00
2019-03-02T04:57:47.347Z,90.00
2019-03-02T04:58:23.167Z,90.10
2019-03-02T04:58:58.718Z,90.10
2019-03-02T04:59:34.272Z,90.10
2019-03-02T05:00:12.263Z,90.10
2019-03-02T05:00:47.807Z,90.10
2019-03-02T05:01:23.350Z,90.10
2019-03-02T05:01:59.971Z,90.20
2019-03-02T05:02:35.674Z,90.20
2019-03-02T05:03:11.206Z,90.20
2019-03-02T05:03:47.123Z,90.20
2019-03-02T05:04:22.685Z,90.20
2019-03-02T05:04:58.250Z,90.30
2019-03-02T05:05:33.803Z,90.30
2019-03-02T05:06:10.610Z,90.30
2019-03-02T05:06:46.145Z,90.30
2019-03-02T05:07:21.681Z,90.40
2019-03-02T05:07:57.235Z,90.40
2019-03-02T05:08:32.794Z,90.40
2019-03-02T05:09:08.622Z,90.50
2019-03-02T05:09:44.201Z,90.50
2019-03-02T05:10:20.042Z,90.50
2019-03-02T05:10:55.590Z,90.60
2019-03-02T05:11:31.143Z,90.60
2019-03-02T05:12:07.250Z,90.60
2019-03-02T05:12:43.077Z,90.70
2019-03-02T05:13:19.167Z,90.80
2019-03-02T05:13:54.706Z,90.70
2019-03-02T05:14:30.270Z,90.70
2019-03-02T05:15:07.612Z,91.10
2019-03-02T05:15:43.159Z,90.80
2019-03-02T05:16:18.784Z,90.80
2019-03-02T05:16:54.348Z,90.90
2019-03-02T05:17:30.611Z,90.90
2019-03-02T05:18:06.183Z,90.90
2019-03-02T05:18:41.728Z,90.90
2019-03-02T05:19:17.278Z,91.00
2019-03-02T05:19:52.847Z,91.10
2019-03-02T05:20:28.403Z,91.20
2019-03-02T05:21:03.957Z,91.20
2019-03-02T05:21:39.826Z,91.20
2019-03-02T05:22:18.758Z,91.20
2019-03-02T05:22:55.990Z,91.30
2019-03-02T05:23:31.707Z,91.20
2019-03-02T05:24:09.145Z,91.20
2019-03-02T05:24:45.459Z,91.20
2019-03-02T05:25:21.007Z,91.20
2019-03-02T05:25:56.558Z,91.20
2019-03-02T05:26:32.547Z,91.20
2019-03-02T05:27:08.095Z,91.20
2019-03-02T05:27:43.754Z,91.20
2019-03-02T05:28:19.318Z,91.20
2019-03-02T05:28:55.290Z,91.20
2019-03-02T05:29:31.267Z,91.20
2019-03-02T05:30:07.655Z,91.30
2019-03-02T05:30:43.508Z,91.20
2019-03-02T05:31:19.370Z,91.30
2019-03-02T05:31:54.934Z,91.30
2019-03-02T05:32:30.551Z,91.30
2019-03-02T05:33:06.102Z,91.40
2019-03-02T05:33:42.673Z,91.40
2019-03-02T05:34:18.218Z,91.40
2019-03-02T05:34:53.855Z,91.80
2019-03-02T05:35:29.454Z,91.50
2019-03-02T05:36:05.362Z,91.50
2019-03-02T05:36:40.981Z,91.60
2019-03-02T05:37:17.309Z,91.70
2019-03-02T05:37:52.920Z,91.70
2019-03-02T05:38:28.755Z,91.70
2019-03-02T05:39:05.822Z,91.70
2019-03-02T05:39:41.543Z,91.80
2019-03-02T05:40:17.095Z,91.80
2019-03-02T05:40:52.690Z,91.90
2019-03-02T05:41:28.247Z,91.90
2019-03-02T05:42:03.797Z,92.00
2019-03-02T05:42:39.343Z,92.00
2019-03-02T05:43:15.261Z,92.10
2019-03-02T05:43:50.815Z,92.20
2019-03-02T05:44:26.635Z,92.20
2019-03-02T05:45:02.220Z,92.20
2019-03-02T05:45:38.743Z,92.30
2019-03-02T05:46:14.554Z,92.40
2019-03-02T05:46:50.098Z,92.40
2019-03-02T05:47:26.027Z,92.50
2019-03-02T05:48:04.877Z,92.50
2019-03-02T05:48:42.497Z,92.60
2019-03-02T05:49:18.583Z,92.60
2019-03-02T05:49:54.709Z,92.40
2019-03-02T05:50:31.620Z,92.50
2019-03-02T05:51:07.761Z,92.50
2019-03-02T05:51:44.069Z,92.60
2019-03-02T05:52:20.905Z,92.70
2019-03-02T05:52:56.450Z,92.70
2019-03-02T05:53:32.035Z,92.80
2019-03-02T05:54:07.669Z,92.80
2019-03-02T05:54:43.221Z,92.80
2019-03-02T05:55:19.739Z,92.80
2019-03-02T05:55:55.309Z,93.20
2019-03-02T05:56:31.127Z,92.90
2019-03-02T05:57:06.917Z,92.80
2019-03-02T05:57:45.355Z,92.80
2019-03-02T05:58:20.900Z,92.90
2019-03-02T05:58:56.731Z,93.10
2019-03-02T05:59:32.275Z,93.10
2019-03-02T06:00:09.431Z,93.10
2019-03-02T06:00:45.023Z,93.10
2019-03-02T06:01:20.830Z,93.10
2019-03-02T06:01:56.376Z,93.50
2019-03-02T06:02:31.915Z,93.10
2019-03-02T06:03:07.795Z,93.10
2019-03-02T06:03:46.017Z,93.10
2019-03-02T06:04:22.090Z,93.10
2019-03-02T06:04:58.074Z,93.10
2019-03-02T06:05:34.188Z,93.10
2019-03-02T06:06:09.755Z,93.10
2019-03-02T06:06:45.307Z,93.10
2019-03-02T06:07:20.854Z,93.20
2019-03-02T06:07:57.587Z,93.20
2019-03-02T06:08:35.586Z,93.30
2019-03-02T06:09:13.758Z,93.50
2019-03-02T06:09:50.190Z,93.30
2019-03-02T06:10:26.373Z,93.30
2019-03-02T06:11:03.358Z,93.30
2019-03-02T06:11:40.371Z,93.30
2019-03-02T06:12:16.424Z,93.40
2019-03-02T06:12:53.033Z,93.40
2019-03-02T06:13:29.765Z,93.40
2019-03-02T06:14:05.424Z,93.50
2019-03-02T06:14:40.959Z,93.60
2019-03-02T06:15:16.762Z,93.60
2019-03-02T06:15:52.376Z,93.60
2019-03-02T06:16:27.923Z,93.70
2019-03-02T06:17:03.465Z,93.70
2019-03-02T06:17:39.254Z,93.70
2019-03-02T06:18:14.812Z,93.70
2019-03-02T06:18:50.350Z,93.70
2019-03-02T06:19:25.898Z,93.70
2019-03-02T06:20:01.463Z,93.80
2019-03-02T06:20:37.020Z,93.80
2019-03-02T06:21:12.603Z,93.80
2019-03-02T06:21:48.410Z,93.90
2019-03-02T06:22:24.235Z,93.90
2019-03-02T06:22:59.791Z,93.90
2019-03-02T06:23:36.315Z,94.00
2019-03-02T06:24:11.871Z,94.00
2019-03-02T06:24:47.422Z,94.10
2019-03-02T06:25:23.300Z,94.00
2019-03-02T06:25:59.126Z,94.00
2019-03-02T06:26:36.699Z,94.10
2019-03-02T06:27:13.331Z,94.10
2019-03-02T06:27:48.871Z,94.20
2019-03-02T06:28:24.410Z,94.10
2019-03-02T06:28:59.959Z,94.20
2019-03-02T06:29:35.843Z,94.20
2019-03-02T06:30:11.671Z,94.20
2019-03-02T06:30:47.375Z,94.30
2019-03-02T06:31:22.921Z,94.20
2019-03-02T06:31:58.478Z,94.30
2019-03-02T06:32:34.028Z,94.30
2019-03-02T06:33:09.569Z,94.60
2019-03-02T06:33:45.630Z,94.40
2019-03-02T06:34:21.261Z,94.30
2019-03-02T06:34:57.071Z,94.30
2019-03-02T06:35:32.979Z,94.30
2019-03-02T06:36:10.182Z,94.40
2019-03-02T06:36:46.033Z,94.40
2019-03-02T06:37:21.810Z,94.40
2019-03-02T06:37:57.398Z,94.40
2019-03-02T06:38:33.464Z,94.40
2019-03-02T06:39:09.150Z,94.50
2019-03-02T06:39:45.211Z,94.60
2019-03-02T06:40:23.491Z,94.60
2019-03-02T06:40:58.931Z,94.60
2019-03-02T06:41:34.925Z,94.70
2019-03-02T06:42:11.181Z,94.70
2019-03-02T06:42:46.847Z,94.70
2019-03-02T06:43:22.826Z,94.70
2019-03-02T06:43:59.160Z,95.10
2019-03-02T06:44:36.394Z,94.80
2019-03-02T06:45:12.054Z,94.70
2019-03-02T06:45:47.947Z,94.80
2019-03-02T06:46:23.784Z,94.80
2019-03-02T06:46:59.359Z,94.90
2019-03-02T06:47:35.016Z,94.90
2019-03-02T06:48:10.958Z,94.90
2019-03-02T06:48:47.078Z,95.00
2019-03-02T06:49:22.886Z,95.00
2019-03-02T06:49:59.344Z,95.10
2019-03-02T06:50:36.792Z,95.20
2019-03-02T06:51:12.576Z,95.20
2019-03-02T06:51:49.603Z,95.20
2019-03-02T06:52:26.199Z,95.30
2019-03-02T06:53:02.500Z,95.30
2019-03-02T06:53:39.406Z,95.30
2019-03-02T06:54:15.242Z,95.40
2019-03-02T06:54:50.835Z,95.40
2019-03-02T06:55:26.391Z,95.40
2019-03-02T06:56:02.038Z,95.40
2019-03-02T06:56:39.489Z,95.40
2019-03-02T06:57:15.511Z,95.40
2019-03-02T06:57:51.622Z,95.40
2019-03-02T06:58:29.388Z,95.40
2019-03-02T06:59:05.009Z,95.50
2019-03-02T06:59:40.673Z,95.50
2019-03-02T07:00:18.323Z,95.50
2019-03-02T07:00:54.125Z,95.50
2019-03-02T07:01:29.975Z,95.40
2019-03-02T07:02:05.567Z,95.50
2019-03-02T07:02:41.129Z,95.50
2019-03-02T07:03:16.949Z,95.50
2019-03-02T07:03:52.542Z,95.40
2019-03-02T07:04:28.102Z,95.50
2019-03-02T07:05:03.827Z,95.40
2019-03-02T07:05:39.380Z,95.40
2019-03-02T07:06:15.195Z,95.40
2019-03-02T07:06:50.881Z,95.40
2019-03-02T07:07:26.462Z,95.30
2019-03-02T07:08:02.018Z,95.40
2019-03-02T07:08:37.611Z,95.40
2019-03-02T07:09:13.618Z,95.40
2019-03-02T07:09:49.180Z,95.30
2019-03-02T07:10:24.740Z,95.30
2019-03-02T07:11:00.278Z,95.30
2019-03-02T07:11:35.835Z,95.30
2019-03-02T07:12:11.766Z,95.30
2019-03-02T07:12:47.334Z,95.40
2019-03-02T07:13:23.116Z,95.30
2019-03-02T07:13:58.994Z,95.30
2019-03-02T07:14:34.583Z,95.30
2019-03-02T07:15:13.230Z,95.30
2019-03-02T07:15:48.399Z,95.30
2019-03-02T07:16:23.964Z,95.30
2019-03-02T07:16:59.503Z,95.30
2019-03-02T07:17:56.730Z,95.30
2019-03-02T07:18:46.306Z,95.30
2019-03-02T07:19:24.488Z,95.30
2019-03-02T07:20:08.759Z,95.30
2019-03-02T07:20:44.749Z,95.30
2019-03-02T07:21:20.501Z,95.40
2019-03-02T07:21:57.569Z,95.30
2019-03-02T07:22:33.398Z,95.30
2019-03-02T07:23:08.970Z,95.40
2019-03-02T07:23:44.770Z,95.30
2019-03-02T07:24:20.491Z,95.30
2019-03-02T07:24:56.437Z,95.30
2019-03-02T07:25:31.989Z,95.30
2019-03-02T07:26:07.912Z,95.20
2019-03-02T07:26:43.476Z,95.30
2019-03-02T07:27:19.026Z,95.20
2019-03-02T07:27:54.627Z,95.20
2019-03-02T07:28:30.442Z,95.20
2019-03-02T07:29:06.012Z,95.20
2019-03-02T07:29:41.560Z,95.20
2019-03-02T07:30:17.107Z,95.20
2019-03-02T07:30:52.634Z,95.20
2019-03-02T07:31:28.183Z,95.20
2019-03-02T07:32:03.767Z,95.20
2019-03-02T07:32:39.327Z,95.20
2019-03-02T07:33:15.213Z,95.20
2019-03-02T07:33:50.800Z,95.20
2019-03-02T07:34:26.342Z,95.20
2019-03-02T07:35:02.263Z,95.20
2019-03-02T07:35:38.064Z,95.40
2019-03-02T07:36:13.602Z,95.10
2019-03-02T07:36:49.147Z,95.10
2019-03-02T07:37:24.962Z,95.10
2019-03-02T07:38:00.540Z,95.00
2019-03-02T07:38:36.141Z,95.00
2019-03-02T07:39:11.876Z,95.00
2019-03-02T07:39:47.678Z,95.00
2019-03-02T07:40:23.649Z,95.00
2019-03-02T07:40:59.303Z,94.90
2019-03-02T07:41:36.159Z,94.90
2019-03-02T07:42:11.795Z,94.90
2019-03-02T07:42:47.366Z,94.90
2019-03-02T07:43:22.938Z,94.90
2019-03-02T07:43:59.784Z,94.80
2019-03-02T07:44:36.136Z,94.80
2019-03-02T07:45:13.523Z,94.80
2019-03-02T07:45:49.488Z,94.80
2019-03-02T07:46:25.113Z,94.80
2019-03-02T07:47:01.304Z,94.80